createdAt,value
2022-07-25T00:03:35.847Z,28.46
2022-07-25T00:08:43.263Z,28.43
2022-07-25T00:13:50.462Z,28.44
2022-07-25T00:18:57.676Z,28.41
2022-07-25T00:24:05.183Z,28.42
2022-07-25T00:29:12.310Z,28.42
2022-07-25T00:34:19.589Z,28.37
2022-07-25T00:39:26.826Z,28.37
2022-07-25T00:44:34.003Z,28.38
2022-07-25T00:49:41.250Z,28.38
2022-07-25T00:54:48.497Z,28.37
2022-07-25T00:59:55.727Z,28.38
2022-07-25T01:05:02.964Z,28.35
2022-07-25T01:10:10.249Z,28.31
2022-07-25T01:15:17.445Z,28.29
2022-07-25T01:20:24.620Z,28.25
2022-07-25T01:25:31.826Z,28.24
2022-07-25T01:30:39.081Z,28.25
2022-07-25T01:35:46.284Z,28.25
2022-07-25T01:40:53.561Z,28.23
2022-07-25T01:46:00.866Z,28.23
2022-07-25T01:51:08.040Z,28.21
2022-07-25T01:56:15.298Z,28.19
2022-07-25T02:01:22.569Z,28.18
2022-07-25T02:06:29.745Z,28.15
2022-07-25T02:11:36.973Z,28.15
2022-07-25T02:16:44.166Z,28.14
2022-07-25T02:21:51.435Z,28.14
2022-07-25T02:26:59.392Z,28.11
2022-07-25T02:32:06.556Z,28.12
2022-07-25T02:37:13.786Z,28.11
2022-07-25T02:42:20.971Z,28.13
2022-07-25T02:47:28.338Z,28.11
2022-07-25T02:52:35.541Z,28.07
2022-07-25T02:57:44.012Z,28.05
2022-07-25T03:02:51.212Z,28.02
2022-07-25T03:07:58.467Z,27.99
2022-07-25T03:13:05.701Z,27.98
2022-07-25T03:18:12.867Z,27.94
2022-07-25T03:23:20.092Z,27.95
2022-07-25T03:28:27.285Z,27.95
2022-07-25T03:33:34.548Z,27.92
2022-07-25T03:38:41.722Z,27.93
2022-07-25T03:43:49.029Z,27.93
2022-07-25T03:48:56.292Z,27.90
2022-07-25T03:54:03.959Z,27.89
2022-07-25T03:59:10.657Z,27.88
2022-07-25T04:04:17.929Z,27.87
2022-07-25T04:09:25.208Z,27.85
2022-07-25T04:14:32.411Z,27.85
2022-07-25T04:19:39.595Z,27.82
2022-07-25T04:24:46.780Z,27.81
2022-07-25T04:29:53.960Z,27.81
2022-07-25T04:35:01.150Z,27.83
2022-07-25T04:40:08.403Z,27.80
2022-07-25T04:45:17.557Z,27.81
2022-07-25T04:50:24.926Z,27.81
2022-07-25T04:55:30.003Z,27.80
2022-07-25T05:00:37.265Z,27.78
2022-07-25T05:05:44.472Z,27.79
2022-07-25T05:10:51.748Z,27.78
2022-07-25T05:15:59.041Z,27.81
2022-07-25T05:21:06.235Z,27.80
2022-07-25T05:26:13.504Z,27.81
2022-07-25T05:31:20.879Z,27.82
2022-07-25T05:36:27.934Z,27.82
2022-07-25T05:41:35.152Z,27.82
2022-07-25T05:46:42.460Z,27.82
2022-07-25T05:51:49.637Z,27.82
2022-07-25T05:56:56.834Z,27.83
2022-07-25T06:02:04.253Z,27.85
2022-07-25T06:07:11.993Z,27.84
2022-07-25T06:12:19.113Z,27.89
2022-07-25T06:17:32.015Z,27.89
2022-07-25T06:22:33.587Z,27.92
2022-07-25T06:27:40.817Z,27.94
2022-07-25T06:32:48.048Z,27.95
2022-07-25T06:37:57.367Z,27.94
2022-07-25T06:43:04.591Z,27.96
2022-07-25T06:48:11.803Z,28.02
2022-07-25T06:53:19.073Z,28.05
2022-07-25T06:58:26.260Z,28.05
2022-07-25T07:03:33.630Z,28.07
2022-07-25T07:08:40.733Z,28.08
2022-07-25T07:13:48.453Z,28.11
2022-07-25T07:18:55.751Z,28.13
2022-07-25T07:24:03.024Z,28.16
2022-07-25T07:29:10.561Z,28.20
2022-07-25T07:34:17.775Z,28.22
2022-07-25T07:39:26.028Z,28.25
2022-07-25T07:44:33.255Z,28.26
2022-07-25T07:49:40.557Z,28.28
2022-07-25T07:54:47.804Z,28.31
2022-07-25T07:59:55.369Z,28.34
2022-07-25T08:05:02.550Z,28.37
2022-07-25T08:10:09.791Z,28.41
2022-07-25T08:15:16.938Z,28.42
2022-07-25T08:20:39.078Z,28.44
2022-07-25T08:25:31.323Z,28.46
2022-07-25T08:30:38.553Z,28.49
2022-07-25T08:35:45.722Z,28.51
2022-07-25T08:40:52.964Z,28.54
2022-07-25T08:46:00.182Z,28.56
2022-07-25T08:51:07.331Z,28.57
2022-07-25T08:56:20.426Z,28.61
2022-07-25T09:01:21.838Z,28.63
2022-07-25T09:06:29.015Z,28.66
2022-07-25T09:11:36.237Z,28.70
2022-07-25T09:16:44.378Z,28.72
2022-07-25T09:21:50.772Z,28.75
2022-07-25T09:26:58.031Z,28.77
2022-07-25T09:32:05.211Z,28.79
2022-07-25T09:37:13.913Z,28.80
2022-07-25T09:42:21.122Z,28.84
2022-07-25T09:47:28.674Z,28.86
2022-07-25T09:52:35.873Z,28.88
2022-07-25T09:57:43.085Z,28.89
2022-07-25T10:02:50.425Z,28.91
2022-07-25T10:07:57.568Z,28.93
2022-07-25T10:13:09.885Z,28.95
2022-07-25T10:18:12.116Z,28.97
2022-07-25T10:23:19.390Z,28.99
2022-07-25T10:28:26.834Z,29.02
2022-07-25T10:33:34.137Z,29.06
2022-07-25T10:38:41.376Z,29.09
2022-07-25T10:43:48.995Z,29.07
2022-07-25T10:48:55.853Z,29.08
2022-07-25T10:54:02.956Z,29.14
2022-07-25T10:59:10.357Z,29.19
2022-07-25T11:04:17.365Z,29.20
2022-07-25T11:09:27.420Z,29.22
2022-07-25T11:14:31.780Z,29.24
2022-07-25T11:19:38.956Z,29.25
2022-07-25T11:24:46.211Z,29.29
2022-07-25T11:29:53.479Z,29.33
2022-07-25T11:35:00.694Z,29.36
2022-07-25T11:40:07.887Z,29.37
2022-07-25T11:45:15.085Z,29.41
2022-07-25T11:50:22.262Z,29.42
2022-07-25T11:55:29.396Z,29.44
2022-07-25T12:00:36.597Z,29.46
2022-07-25T12:05:43.799Z,29.42
2022-07-25T12:10:50.969Z,29.46
2022-07-25T12:15:58.191Z,29.47
2022-07-25T12:21:05.404Z,29.48
2022-07-25T12:26:12.586Z,29.50
2022-07-25T12:31:19.884Z,29.51
2022-07-25T12:36:30.117Z,29.54
2022-07-25T12:41:37.318Z,29.55
2022-07-25T12:46:49.226Z,29.56
2022-07-25T12:51:57.699Z,29.60
2022-07-25T12:56:59.038Z,29.63
2022-07-25T13:02:06.338Z,29.64
2022-07-25T13:07:15.301Z,29.67
2022-07-25T13:12:22.513Z,29.68
2022-07-25T13:17:29.782Z,29.69
2022-07-25T13:22:36.989Z,29.70
2022-07-25T13:27:44.537Z,29.75
2022-07-25T13:32:52.950Z,29.77
2022-07-25T13:38:00.165Z,29.77
2022-07-25T13:43:07.454Z,29.81
2022-07-25T13:48:31.489Z,29.81
2022-07-25T13:53:25.514Z,29.82
2022-07-25T13:58:30.444Z,29.84
2022-07-25T14:03:37.692Z,29.86
2022-07-25T14:08:44.864Z,29.87
2022-07-25T14:13:52.040Z,29.89
2022-07-25T14:19:00.086Z,29.90
2022-07-25T14:24:07.321Z,29.91
2022-07-25T14:29:14.491Z,29.93
2022-07-25T14:34:21.769Z,29.94
2022-07-25T14:39:28.958Z,29.94
2022-07-25T14:44:37.263Z,29.96
2022-07-25T14:49:43.648Z,29.98
2022-07-25T14:54:50.825Z,29.99
2022-07-25T14:59:58.011Z,29.99
2022-07-25T15:05:05.283Z,30.01
2022-07-25T15:10:12.413Z,30.00
2022-07-25T15:15:19.651Z,30.01
2022-07-25T15:20:26.858Z,30.05
2022-07-25T15:26:03.581Z,30.06
2022-07-25T15:30:41.226Z,30.06
2022-07-25T15:35:52.004Z,30.07
2022-07-25T15:41:00.520Z,30.10
2022-07-25T15:46:07.841Z,30.13
2022-07-25T15:51:14.899Z,30.13
2022-07-25T15:56:22.132Z,30.13
2022-07-25T16:01:29.445Z,30.16
2022-07-25T16:06:36.644Z,30.20
2022-07-25T16:11:43.810Z,30.20
2022-07-25T16:16:50.996Z,30.21
2022-07-25T16:21:58.202Z,30.21
2022-07-25T16:27:05.454Z,30.21
2022-07-25T16:32:14.561Z,30.19
2022-07-25T16:37:21.774Z,30.19
2022-07-25T16:42:28.938Z,30.19
2022-07-25T16:47:36.227Z,30.20
2022-07-25T16:52:43.410Z,30.19
2022-07-25T16:57:50.707Z,30.19
2022-07-25T17:02:57.967Z,30.18
2022-07-25T17:08:05.173Z,30.19
2022-07-25T17:13:12.431Z,30.17
2022-07-25T17:18:19.644Z,30.19
2022-07-25T17:23:26.895Z,30.26
2022-07-25T17:28:34.116Z,30.31
2022-07-25T17:33:41.342Z,30.36
2022-07-25T17:38:48.608Z,30.35
2022-07-25T17:43:55.799Z,30.36
2022-07-25T17:49:03.048Z,30.36
2022-07-25T17:54:10.659Z,30.39
2022-07-25T17:59:17.434Z,30.38
2022-07-25T18:04:24.676Z,30.39
2022-07-25T18:09:31.900Z,30.44
2022-07-25T18:14:39.074Z,30.43
2022-07-25T18:19:46.357Z,30.42
2022-07-25T18:24:53.558Z,30.35
2022-07-25T18:30:00.704Z,30.31
2022-07-25T18:35:07.954Z,30.26
2022-07-25T18:40:15.101Z,30.13
2022-07-25T18:45:22.340Z,30.07
2022-07-25T18:50:29.584Z,30.09
2022-07-25T18:55:36.733Z,30.02
2022-07-25T19:00:45.527Z,29.97
2022-07-25T19:05:52.788Z,29.96
2022-07-25T19:11:00.012Z,30.06
2022-07-25T19:16:07.257Z,30.06
2022-07-25T19:21:14.480Z,30.13
2022-07-25T19:26:21.723Z,30.12
2022-07-25T19:31:29.050Z,30.09
2022-07-25T19:36:36.134Z,30.07
2022-07-25T19:41:46.608Z,30.21
2022-07-25T19:46:50.558Z,30.25
2022-07-25T19:51:57.773Z,30.20
2022-07-25T19:57:04.987Z,30.21
2022-07-25T20:02:12.282Z,30.22
2022-07-25T20:07:19.470Z,29.91
2022-07-25T20:12:26.651Z,29.62
2022-07-25T20:17:33.831Z,29.50
2022-07-25T20:22:41.017Z,29.48
2022-07-25T20:27:48.200Z,29.37
2022-07-25T20:32:55.406Z,29.24
2022-07-25T20:38:02.675Z,29.05
2022-07-25T20:43:12.904Z,28.88
2022-07-25T20:48:20.179Z,28.82
2022-07-25T20:53:27.485Z,28.75
2022-07-25T20:58:34.740Z,28.51
2022-07-25T21:03:42.001Z,28.47
2022-07-25T21:08:49.191Z,28.34
2022-07-25T21:13:56.496Z,28.22
2022-07-25T21:19:03.983Z,28.24
2022-07-25T21:24:10.956Z,28.32
2022-07-25T21:29:18.149Z,28.33
2022-07-25T21:34:25.451Z,28.38
2022-07-25T21:39:32.728Z,28.40
2022-07-25T21:44:39.959Z,28.37
2022-07-25T21:49:47.222Z,28.36
2022-07-25T21:54:54.362Z,28.41
2022-07-25T22:00:01.641Z,28.43
2022-07-25T22:05:08.859Z,28.45
2022-07-25T22:10:16.129Z,28.47
2022-07-25T22:15:23.305Z,28.40
2022-07-25T22:20:30.505Z,28.30
2022-07-25T22:25:37.643Z,28.23
2022-07-25T22:30:44.873Z,28.18
2022-07-25T22:35:52.031Z,28.14
2022-07-25T22:40:59.270Z,28.14
2022-07-25T22:46:06.582Z,28.12
2022-07-25T22:51:13.694Z,28.14
2022-07-25T22:56:20.909Z,28.11
2022-07-25T23:01:28.161Z,28.09
2022-07-25T23:06:35.422Z,28.11
2022-07-25T23:11:42.699Z,28.09
2022-07-25T23:16:49.992Z,28.10
2022-07-25T23:21:57.128Z,28.09
2022-07-25T23:27:04.387Z,28.13
2022-07-25T23:32:11.602Z,28.14
2022-07-25T23:37:21.398Z,28.15
2022-07-25T23:42:28.648Z,28.16
2022-07-25T23:47:39.565Z,28.18
2022-07-25T23:52:43.096Z,28.17
2022-07-25T23:57:50.324Z,28.19
